| time (UTC) | temp C | wind direction | speed KPH | gust KPH | rain 1hr cm | rain 24hr cm | rain mn cm | humidity % | barometer mb |
| 20260505194618 | 3 | 345 | 1.6 | 4.8 | 0.00 | 1.12 | 0.76 | 92 | 1013.4 |
| 20260505193106 | 3 | 0 | 0.0 | 4.8 | 0.00 | 1.12 | 0.76 | 92 | 1013.4 |
| 20260505191609 | 3 | 38 | 0.0 | 4.8 | 0.00 | 1.12 | 0.76 | 92 | 1013.3 |
| 20260505190057 | 3 | 46 | 0.0 | 1.6 | 0.03 | 1.12 | 0.76 | 93 | 1013.2 |
| 20260505184559 | 3 | 0 | 0.0 | 4.8 | 0.03 | 1.12 | 0.76 | 92 | 1013.3 |
| 20260505183057 | 3 | 0 | 0.0 | 3.2 | 0.03 | 1.12 | 0.76 | 92 | 1013.9 |
| 20260505181558 | 3 | 0 | 0.0 | 3.2 | 0.03 | 1.12 | 0.76 | 93 | 1013.9 |
| 20260505180100 | 3 | 0 | 0.0 | 3.2 | 0.00 | 1.09 | 0.74 | 93 | 1013.9 |
| 20260505174557 | 3 | 0 | 0.0 | 4.8 | 0.03 | 1.09 | 0.74 | 93 | 1014.1 |
| 20260505173114 | 2 | 329 | 0.0 | 4.8 | 0.03 | 1.09 | 0.74 | 92 | 1014.5 |
| 20260505171623 | 2 | 0 | 0.0 | 4.8 | 0.03 | 1.09 | 0.74 | 92 | 1014.5 |
| 20260505170057 | 3 | 0 | 0.0 | 3.2 | 0.03 | 1.09 | 0.74 | 93 | 1014.4 |
| 20260505164605 | 2 | 326 | 1.6 | 4.8 | 0.03 | 1.07 | 0.71 | 93 | 1014.4 |
| 20260505163057 | 2 | 0 | 0.0 | 4.8 | 0.03 | 1.07 | 0.71 | 92 | 1014.4 |
| 20260505161600 | 2 | 37 | 0.0 | 3.2 | 0.05 | 1.07 | 0.71 | 93 | 1014.5 |
| 20260505153055 | 1 | 0 | 0.0 | 6.4 | 0.08 | 1.04 | 0.69 | 92 | 1014.9 |
| 20260505151558 | 1 | 0 | 0.0 | 6.4 | 0.08 | 1.02 | 0.66 | 92 | 1014.9 |
| 20260505150125 | 1 | 302 | 0.0 | 4.8 | 0.08 | 1.02 | 0.66 | 92 | 1015.0 |
| 20260505130103 | 1 | 0 | 0.0 | 4.8 | 0.03 | 0.89 | 0.53 | 91 | 1014.4 |
| 20260505124559 | 1 | 0 | 1.6 | 6.4 | 0.05 | 0.89 | 0.53 | 91 | 1014.1 |
| 20260505123101 | 1 | 9 | 0.0 | 6.4 | 0.05 | 0.89 | 0.53 | 91 | 1014.0 |
| 20260505121623 | 1 | 344 | 1.6 | 8.0 | 0.05 | 0.86 | 0.51 | 91 | 1014.1 |
| 20260505120055 | 2 | 341 | 1.6 | 6.4 | 0.05 | 0.86 | 0.51 | 91 | 1013.8 |
| 20260505114555 | 2 | 352 | 3.2 | 6.4 | 0.05 | 0.84 | 0.48 | 91 | 1013.8 |
| 20260505113059 | 2 | 338 | 3.2 | 6.4 | 0.05 | 0.84 | 0.48 | 91 | 1013.7 |
| 20260505111557 | 2 | 343 | 4.8 | 12.9 | 0.05 | 0.81 | 0.46 | 91 | 1013.6 |
| 20260505101558 | 4 | 42 | 1.6 | 6.4 | 0.28 | 0.76 | 0.41 | 91 | 1012.6 |
| 20260505100137 | 4 | 30 | 0.0 | 8.0 | 0.18 | 0.66 | 0.30 | 91 | 1012.4 |
| 20260505094556 | 5 | 0 | 1.6 | 4.8 | 0.10 | 0.58 | 0.23 | 91 | 1012.1 |
| 20260505093056 | 5 | 0 | 1.6 | 4.8 | 0.03 | 0.48 | 0.13 | 91 | 1012.1 |
| 20260505091619 | 5 | 32 | 1.6 | 4.8 | 0.10 | 0.48 | 0.13 | 91 | 1011.8 |
| 20260505084600 | 6 | 105 | 1.6 | 8.0 | 0.13 | 0.48 | 0.13 | 91 | 1011.5 |
| 20260505083100 | 6 | 9 | 3.2 | 12.9 | 0.10 | 0.46 | 0.10 | 90 | 1011.6 |
| 20260505081604 | 6 | 342 | 3.2 | 9.7 | 0.03 | 0.38 | 0.03 | 90 | 1011.7 |
| 20260505080058 | 6 | 336 | 4.8 | 12.9 | 0.00 | 0.36 | 0.00 | 89 | 1011.5 |
| 20260505074558 | 7 | 352 | 4.8 | 9.7 | 0.00 | 0.36 | 0.00 | 88 | 1011.7 |
| 20260505073102 | 8 | 250 | 0.0 | 1.6 | 0.00 | 0.36 | 0.00 | 90 | 1011.7 |
| 20260505071558 | 8 | 0 | 0.0 | 0.0 | 0.00 | 0.36 | 0.00 | 90 | 1011.7 |
| 20260505070058 | 8 | 0 | 0.0 | 0.0 | 0.00 | 0.36 | 0.00 | 89 | 1011.3 |
| 20260505064609 | 8 | 0 | 0.0 | 3.2 | 0.00 | 0.36 | 0.00 | 89 | 1011.3 |
| 20260505063103 | 8 | 0 | 0.0 | 1.6 | 0.00 | 0.36 | 0.00 | 89 | 1011.4 |
| 20260505061559 | 8 | 0 | 0.0 | 3.2 | 0.00 | 0.36 | 0.00 | 89 | 1011.5 |
| 20260505060059 | 8 | 0 | 0.0 | 3.2 | 0.00 | 0.36 | 0.00 | 89 | 1011.5 |
| 20260505054620 | 8 | 0 | 0.0 | 1.6 | 0.00 | 0.36 | 0.36 | 89 | 1011.6 |
| 20260505053101 | 8 | 0 | 0.0 | 1.6 | 0.00 | 0.36 | 0.36 | 88 | 1011.3 |
| 20260505051556 | 8 | 0 | 0.0 | 1.6 | 0.00 | 0.36 | 0.36 | 88 | 1011.3 |
| 20260505041612 | 8 | 248 | 1.6 | 6.4 | 0.20 | 0.36 | 0.36 | 87 | 1011.8 |
| 20260505040109 | 8 | 0 | 0.0 | 4.8 | 0.28 | 0.33 | 0.33 | 86 | 1011.7 |
| 20260505034600 | 9 | 242 | 1.6 | 4.8 | 0.33 | 0.33 | 0.33 | 86 | 1011.7 |
| 20260505033103 | 9 | 0 | 0.0 | 4.8 | 0.25 | 0.25 | 0.25 | 85 | 1011.9 |
| 20260505031604 | 9 | 276 | 0.0 | 6.4 | 0.15 | 0.15 | 0.15 | 83 | 1011.5 |
| 20260505030109 | 10 | 284 | 3.2 | 8.0 | 0.05 | 0.05 | 0.05 | 78 | 1011.4 |
| 20260505024605 | 10 | 311 | 4.8 | 8.0 | 0.00 | 0.00 | 0.00 | 75 | 1010.8 |
| 20260505023109 | 11 | 301 | 3.2 | 8.0 | 0.00 | 0.00 | 0.00 | 72 | 1010.6 |
| 20260505021600 | 11 | 0 | 1.6 | 3.2 | 0.00 | 0.00 | 0.00 | 68 | 1010.4 |
| 20260505020107 | 11 | 0 | 1.6 | 8.0 | 0.00 | 0.00 | 0.00 | 68 | 1010.6 |
| 20260505014601 | 11 | 0 | 1.6 | 4.8 | 0.00 | 0.00 | 0.00 | 68 | 1010.6 |
| 20260505013101 | 12 | 306 | 0.0 | 12.9 | 0.00 | 0.00 | 0.00 | 66 | 1010.4 |
| 20260505011557 | 13 | 43 | 0.0 | 6.4 | 0.00 | 0.00 | 0.00 | 62 | 1009.9 |
| 20260505010111 | 13 | 360 | 1.6 | 4.8 | 0.00 | 0.00 | 0.00 | 56 | 1009.8 |
| 20260505004557 | 14 | 325 | 0.0 | 4.8 | 0.00 | 0.00 | 0.00 | 54 | 1009.8 |
| 20260505003055 | 14 | 0 | 1.6 | 8.0 | 0.00 | 0.00 | 0.00 | 52 | 1009.5 |
| 20260505001558 | 14 | 332 | 1.6 | 9.7 | 0.00 | 0.00 | 0.00 | 52 | 1009.4 |
| 20260505000105 | 15 | 360 | 3.2 | 8.0 | 0.00 | 0.00 | 0.00 | 50 | 1009.4 |
| 20260504234558 | 16 | 360 | 1.6 | 6.4 | 0.00 | 0.00 | 0.00 | 44 | 1009.3 |
| 20260504233103 | 16 | 360 | 0.0 | 4.8 | 0.00 | 0.00 | 0.00 | 44 | 1009.3 |
| 20260504231557 | 16 | 360 | 3.2 | 12.9 | 0.00 | 0.00 | 0.00 | 43 | 1009.2 |
| 20260504230113 | 16 | 360 | 1.6 | 8.0 | 0.00 | 0.00 | 0.00 | 43 | 1009.3 |
| 20260504224626 | 16 | 360 | 0.0 | 4.8 | 0.00 | 0.00 | 0.00 | 40 | 1009.4 |
| 20260504223100 | 16 | 360 | 3.2 | 8.0 | 0.00 | 0.00 | 0.00 | 39 | 1009.1 |
| 20260504221557 | 17 | 360 | 1.6 | 8.0 | 0.00 | 0.00 | 0.00 | 38 | 1008.6 |
| 20260504220059 | 17 | 32 | 1.6 | 9.7 | 0.00 | 0.00 | 0.00 | 36 | 1008.1 |
| 20260504214558 | 18 | 351 | 6.4 | 19.3 | 0.00 | 0.00 | 0.00 | 36 | 1007.9 |
| 20260504213102 | 19 | 352 | 4.8 | 20.9 | 0.00 | 0.00 | 0.00 | 35 | 1008.3 |
| 20260504211601 | 18 | 352 | 6.4 | 17.7 | 0.00 | 0.00 | 0.00 | 37 | 1008.6 |
| 20260504210104 | 19 | 11 | 4.8 | 16.1 | 0.00 | 0.00 | 0.00 | 32 | 1008.8 |
| 20260504204602 | 20 | 0 | 0.0 | 4.8 | 0.00 | 0.00 | 0.00 | 29 | 1008.5 |
| 20260504203057 | 18 | 0 | 0.0 | 3.2 | 0.00 | 0.00 | 0.00 | 32 | 1008.5 |
| 20260504201607 | 18 | 0 | 0.0 | 12.9 | 0.00 | 0.00 | 0.00 | 35 | 1008.2 |
| 20260504200104 | 18 | 232 | 3.2 | 17.7 | 0.00 | 0.00 | 0.00 | 32 | 1008.1 |